createdAt,value
2022-09-20T00:04:08.412Z,8.82
2022-09-20T00:09:13.202Z,8.84
2022-09-20T00:14:16.414Z,8.83
2022-09-20T00:19:21.836Z,8.85
2022-09-20T00:24:25.882Z,8.89
2022-09-20T00:29:29.162Z,8.93
2022-09-20T00:34:51.259Z,8.96
2022-09-20T00:39:54.961Z,8.98
2022-09-20T00:45:23.583Z,8.99
2022-09-20T00:50:34.139Z,9.02
2022-09-20T00:55:41.413Z,9.03
2022-09-20T01:00:45.684Z,9.04
2022-09-20T01:05:51.042Z,9.05
2022-09-20T01:10:54.280Z,9.04
2022-09-20T01:16:00.332Z,9.05
2022-09-20T01:21:05.178Z,9.08
2022-09-20T01:26:35.012Z,9.08
2022-09-20T01:31:54.171Z,9.04
2022-09-20T01:37:30.258Z,8.99
2022-09-20T01:42:37.561Z,8.95
2022-09-20T01:47:49.959Z,8.93
2022-09-20T01:53:40.203Z,8.89
2022-09-20T01:59:19.741Z,8.89
2022-09-20T02:04:54.318Z,8.92
2022-09-20T02:10:16.083Z,8.94
2022-09-20T02:15:36.721Z,8.98
2022-09-20T02:20:57.457Z,9.00
2022-09-20T02:26:35.940Z,9.01
2022-09-20T02:32:11.485Z,9.01
2022-09-20T02:37:58.798Z,9.01
2022-09-20T02:43:09.254Z,9.00
2022-09-20T02:48:17.345Z,8.99
2022-09-20T02:53:40.999Z,8.96
2022-09-20T02:58:54.324Z,8.93
2022-09-20T03:04:16.301Z,8.90
2022-09-20T03:09:38.891Z,8.88
2022-09-20T03:15:16.608Z,8.86
2022-09-20T03:20:41.443Z,8.86
2022-09-20T03:26:15.585Z,8.81
2022-09-20T03:31:53.643Z,8.79
2022-09-20T03:37:08.526Z,8.76
2022-09-20T03:42:11.717Z,8.75
2022-09-20T03:47:33.302Z,8.69
2022-09-20T03:52:54.716Z,8.65
2022-09-20T03:58:22.644Z,8.64
2022-09-20T04:03:41.017Z,8.65
2022-09-20T04:09:27.064Z,8.66
2022-09-20T04:14:42.531Z,8.70
2022-09-20T04:20:04.291Z,8.74
2022-09-20T04:25:20.631Z,8.77
2022-09-20T04:30:32.544Z,8.81
2022-09-20T04:36:07.828Z,8.83
2022-09-20T04:41:33.045Z,8.90
2022-09-20T04:46:55.946Z,8.94
2022-09-20T04:52:08.094Z,9.00
2022-09-20T04:57:49.212Z,9.06
2022-09-20T05:04:00.906Z,9.10
2022-09-20T05:09:43.023Z,9.11
2022-09-20T05:14:53.908Z,9.14
2022-09-20T05:20:05.758Z,9.14
2022-09-20T05:25:52.523Z,9.16
2022-09-20T05:31:02.875Z,9.13
2022-09-20T05:36:34.269Z,9.09
2022-09-20T05:42:07.493Z,9.10
2022-09-20T05:47:35.624Z,9.16
2022-09-20T05:52:59.951Z,9.24
2022-09-20T05:58:42.121Z,9.33
2022-09-20T06:03:54.751Z,9.43
2022-09-20T06:09:17.363Z,9.49
2022-09-20T06:15:03.314Z,9.57
2022-09-20T06:20:26.904Z,9.59
2022-09-20T06:26:00.416Z,9.62
2022-09-20T06:31:10.378Z,9.69
2022-09-20T06:36:38.636Z,9.74
2022-09-20T06:41:43.604Z,9.84
2022-09-20T06:46:47.909Z,9.90
2022-09-20T06:51:52.775Z,10.03
2022-09-20T06:56:59.663Z,10.15
2022-09-20T07:02:05.953Z,10.21
2022-09-20T07:07:16.867Z,10.32
2022-09-20T07:12:25.215Z,10.37
2022-09-20T07:17:30.610Z,10.45
2022-09-20T07:22:34.050Z,10.55
2022-09-20T07:27:37.708Z,10.83
2022-09-20T07:32:42.756Z,11.08
2022-09-20T07:37:46.036Z,11.18
2022-09-20T07:42:52.006Z,11.09
2022-09-20T07:47:59.722Z,11.26
2022-09-20T07:53:05.090Z,11.65
2022-09-20T07:58:08.448Z,11.69
2022-09-20T08:03:13.170Z,11.69
2022-09-20T08:08:18.239Z,11.75
2022-09-20T08:18:48.749Z,12.21
2022-09-20T08:23:52.183Z,12.36
2022-09-20T08:28:57.838Z,12.64
2022-09-20T08:34:05.189Z,13.16
2022-09-20T08:44:35.880Z,13.67
2022-09-20T08:49:45.739Z,13.41
2022-09-20T08:54:49.422Z,13.18
2022-09-20T08:59:53.212Z,13.15
2022-09-20T09:04:58.815Z,13.17
2022-09-20T09:10:04.278Z,13.16
2022-09-20T09:15:30.311Z,13.31
2022-09-20T09:20:41.736Z,13.41
2022-09-20T09:25:45.793Z,13.44
2022-09-20T09:30:49.362Z,13.59
2022-09-20T09:35:55.407Z,13.50
2022-09-20T09:41:03.435Z,13.11
2022-09-20T09:46:25.329Z,12.96
2022-09-20T09:51:34.898Z,13.06
2022-09-20T09:57:20.928Z,13.56
2022-09-20T10:02:46.981Z,13.92
2022-09-20T10:08:28.031Z,14.12
2022-09-20T10:13:50.160Z,14.02
2022-09-20T10:19:01.490Z,13.72
2022-09-20T10:24:11.054Z,13.89
2022-09-20T10:29:28.185Z,14.12
2022-09-20T10:34:50.479Z,14.18
2022-09-20T10:40:53.323Z,14.18
2022-09-20T10:46:30.673Z,14.26
2022-09-20T10:52:01.019Z,14.70
2022-09-20T10:57:31.184Z,14.91
2022-09-20T11:03:01.035Z,14.81
2022-09-20T11:08:12.630Z,14.63
2022-09-20T11:13:31.214Z,14.34
2022-09-20T11:19:02.396Z,14.07
2022-09-20T11:24:35.475Z,14.34
2022-09-20T11:29:57.982Z,14.50
2022-09-20T11:35:17.932Z,14.32
2022-09-20T11:40:35.540Z,14.26
2022-09-20T11:45:40.946Z,13.96
2022-09-20T11:51:22.865Z,13.66
2022-09-20T11:56:50.406Z,13.27
2022-09-20T12:01:56.044Z,13.19
2022-09-20T12:07:07.476Z,13.43
2022-09-20T12:12:34.146Z,14.02
2022-09-20T12:17:47.398Z,14.50
2022-09-20T12:22:52.440Z,14.44
2022-09-20T12:27:58.321Z,13.94
2022-09-20T12:33:23.376Z,13.34
2022-09-20T12:38:35.227Z,13.02
2022-09-20T12:44:00.296Z,12.88
2022-09-20T12:49:48.394Z,12.78
2022-09-20T12:54:58.134Z,12.97
2022-09-20T13:00:09.349Z,13.32
2022-09-20T13:05:40.612Z,13.93
2022-09-20T13:11:09.144Z,14.48
2022-09-20T13:16:32.807Z,14.90
2022-09-20T13:21:57.832Z,15.11
2022-09-20T13:27:21.266Z,14.90
2022-09-20T13:32:32.549Z,14.89
2022-09-20T13:37:58.686Z,15.08
2022-09-20T13:43:24.640Z,15.22
2022-09-20T13:48:32.727Z,14.74
2022-09-20T13:53:42.409Z,14.13
2022-09-20T13:58:46.634Z,13.71
2022-09-20T14:03:56.932Z,13.78
2022-09-20T14:09:09.840Z,14.06
2022-09-20T14:14:22.437Z,14.19
2022-09-20T14:19:35.031Z,14.47
2022-09-20T14:24:39.576Z,14.84
2022-09-20T14:29:48.132Z,14.87
2022-09-20T14:34:58.607Z,14.81
2022-09-20T14:40:20.217Z,14.62
2022-09-20T14:45:40.296Z,14.39
2022-09-20T14:51:31.695Z,14.21
2022-09-20T14:56:40.689Z,14.20
2022-09-20T15:02:13.322Z,14.17
2022-09-20T15:07:17.920Z,14.15
2022-09-20T15:12:22.118Z,14.09
2022-09-20T15:17:26.955Z,14.05
2022-09-20T15:22:32.516Z,14.14
2022-09-20T15:27:39.292Z,14.16
2022-09-20T15:32:45.138Z,14.14
2022-09-20T15:38:08.268Z,14.21
2022-09-20T15:43:24.326Z,14.22
2022-09-20T15:48:30.645Z,14.05
2022-09-20T15:53:45.780Z,13.76
2022-09-20T15:59:01.337Z,13.46
2022-09-20T16:04:13.038Z,13.13
2022-09-20T16:09:30.794Z,12.83
2022-09-20T16:14:45.973Z,12.57
2022-09-20T16:20:08.147Z,12.25
2022-09-20T16:25:45.441Z,11.90
2022-09-20T16:31:42.568Z,11.51
2022-09-20T16:36:55.076Z,11.30
2022-09-20T16:42:07.087Z,11.06
2022-09-20T16:47:22.705Z,10.83
2022-09-20T16:52:30.424Z,10.57
2022-09-20T16:57:38.840Z,10.32
2022-09-20T17:02:47.959Z,10.09
2022-09-20T17:08:00.226Z,9.91
2022-09-20T17:13:08.220Z,9.82
2022-09-20T17:18:17.897Z,9.73
2022-09-20T17:23:25.573Z,9.69
2022-09-20T17:28:32.553Z,9.62
2022-09-20T17:33:36.689Z,9.47
2022-09-20T17:38:47.579Z,9.34
2022-09-20T17:43:58.959Z,9.19
2022-09-20T17:49:21.186Z,8.98
2022-09-20T17:54:36.197Z,8.84
2022-09-20T17:59:42.363Z,8.72
2022-09-20T18:04:53.071Z,8.60
2022-09-20T18:10:02.500Z,8.50
2022-09-20T18:15:18.979Z,8.44
2022-09-20T18:20:25.691Z,8.35
2022-09-20T18:25:29.815Z,8.24
2022-09-20T18:30:36.999Z,8.13
2022-09-20T18:35:45.878Z,8.07
2022-09-20T18:41:00.946Z,8.09
2022-09-20T18:46:07.277Z,8.23
2022-09-20T18:51:11.348Z,8.29
2022-09-20T18:56:28.957Z,8.30
2022-09-20T19:01:35.669Z,8.17
2022-09-20T19:06:57.963Z,8.02
2022-09-20T19:12:06.509Z,7.92
2022-09-20T19:17:17.843Z,7.84
2022-09-20T19:22:38.176Z,7.81
2022-09-20T19:27:45.412Z,7.81
2022-09-20T19:32:50.365Z,7.72
2022-09-20T19:38:05.798Z,7.58
2022-09-20T19:43:24.564Z,7.47
2022-09-20T19:49:03.375Z,7.44
2022-09-20T19:54:10.458Z,7.46
2022-09-20T19:59:14.627Z,7.48
2022-09-20T20:04:19.682Z,7.42
2022-09-20T20:09:52.466Z,7.37
2022-09-20T20:15:07.915Z,7.32
2022-09-20T20:20:26.216Z,7.30
2022-09-20T20:25:50.712Z,7.27
2022-09-20T20:30:59.203Z,7.22
2022-09-20T20:36:09.133Z,7.21
2022-09-20T20:41:16.053Z,7.21
2022-09-20T20:46:23.086Z,7.18
2022-09-20T20:51:27.692Z,7.12
2022-09-20T20:56:45.302Z,7.11
2022-09-20T21:02:07.992Z,7.10
2022-09-20T21:07:21.666Z,7.01
2022-09-20T21:12:25.361Z,6.98
2022-09-20T21:17:32.653Z,6.91
2022-09-20T21:22:39.076Z,6.90
2022-09-20T21:27:42.913Z,6.87
2022-09-20T21:32:49.468Z,6.83
2022-09-20T21:37:53.340Z,6.68
2022-09-20T21:42:59.889Z,6.58
2022-09-20T21:48:10.161Z,6.51
2022-09-20T21:53:25.476Z,6.42
2022-09-20T21:58:32.112Z,6.42
2022-09-20T22:03:50.361Z,6.46
2022-09-20T22:08:59.230Z,6.41
2022-09-20T22:14:02.740Z,6.33
2022-09-20T22:19:08.174Z,6.31
2022-09-20T22:24:12.742Z,6.23
2022-09-20T22:29:17.666Z,6.18
2022-09-20T22:34:22.660Z,6.19
2022-09-20T22:39:26.023Z,6.15
2022-09-20T22:44:29.203Z,6.18
2022-09-20T22:49:32.508Z,6.26
2022-09-20T22:54:37.778Z,6.30
2022-09-20T22:59:42.096Z,6.29
2022-09-20T23:04:45.762Z,6.27
2022-09-20T23:09:50.173Z,6.20
2022-09-20T23:14:53.857Z,6.17
2022-09-20T23:19:57.545Z,6.13
2022-09-20T23:25:01.444Z,6.04
2022-09-20T23:30:05.696Z,5.98
2022-09-20T23:35:09.272Z,5.94
2022-09-20T23:40:12.605Z,5.94
2022-09-20T23:45:15.929Z,5.84
2022-09-20T23:50:19.341Z,5.82
2022-09-20T23:55:22.581Z,5.77
